createdAt,value
2018-11-25T00:04:50.895Z,27.63
2018-11-25T00:09:53.076Z,28.17
2018-11-25T00:14:55.212Z,26.17
2018-11-25T00:19:57.394Z,25.20
2018-11-25T00:24:59.607Z,27.37
2018-11-25T00:30:01.812Z,26.10
2018-11-25T00:35:03.967Z,28.03
2018-11-25T00:40:07.922Z,26.87
2018-11-25T00:45:12.497Z,28.43
2018-11-25T00:50:14.732Z,26.17
2018-11-25T00:55:17.202Z,27.60
2018-11-25T01:00:19.538Z,26.80
2018-11-25T01:05:21.729Z,26.33
2018-11-25T01:10:23.890Z,26.83
2018-11-25T01:15:26.063Z,25.40
2018-11-25T01:20:28.205Z,24.73
2018-11-25T01:25:30.356Z,24.00
2018-11-25T01:30:32.523Z,27.03
2018-11-25T01:35:34.668Z,24.53
2018-11-25T01:40:36.782Z,27.63
2018-11-25T01:45:38.950Z,27.53
2018-11-25T01:50:41.099Z,26.90
2018-11-25T01:55:43.270Z,27.20
2018-11-25T02:00:45.421Z,29.13
2018-11-25T02:05:47.577Z,32.63
2018-11-25T02:10:49.733Z,28.50
2018-11-25T02:15:51.833Z,24.70
2018-11-25T02:20:55.551Z,26.60
2018-11-25T02:25:57.694Z,26.33
2018-11-25T02:30:59.851Z,26.57
2018-11-25T02:36:01.976Z,28.57
2018-11-25T02:41:04.177Z,25.33
2018-11-25T02:46:06.361Z,26.20
2018-11-25T02:51:08.506Z,27.80
2018-11-25T02:56:10.634Z,27.10
2018-11-25T03:01:12.726Z,27.90
2018-11-25T03:06:14.872Z,26.93
2018-11-25T03:11:17.027Z,23.73
2018-11-25T03:16:19.199Z,27.67
2018-11-25T03:21:21.343Z,27.43
2018-11-25T03:26:23.484Z,27.70
2018-11-25T03:31:25.614Z,28.40
2018-11-25T03:36:27.732Z,28.33
2018-11-25T03:41:29.866Z,27.70
2018-11-25T03:46:32.052Z,27.20
2018-11-25T03:51:34.219Z,25.87
2018-11-25T03:56:36.346Z,25.20
2018-11-25T04:01:38.482Z,21.20
2018-11-25T04:06:40.600Z,21.10
2018-11-25T04:11:42.728Z,20.37
2018-11-25T04:16:44.869Z,18.67
2018-11-25T04:21:47.007Z,17.33
2018-11-25T04:26:49.143Z,16.83
2018-11-25T04:31:51.263Z,16.30
2018-11-25T04:36:53.382Z,16.60
2018-11-25T04:41:55.486Z,14.73
2018-11-25T04:46:57.620Z,16.10
2018-11-25T04:51:59.733Z,14.73
2018-11-25T04:57:01.867Z,14.30
2018-11-25T05:02:03.999Z,14.27
2018-11-25T05:07:06.265Z,14.67
2018-11-25T05:12:08.390Z,16.00
2018-11-25T05:17:10.535Z,16.00
2018-11-25T05:22:12.670Z,15.77
2018-11-25T05:27:14.816Z,17.00
2018-11-25T05:32:16.938Z,16.40
2018-11-25T05:37:19.068Z,16.63
2018-11-25T05:42:21.159Z,16.67
2018-11-25T05:47:23.285Z,16.47
2018-11-25T05:52:25.448Z,15.80
2018-11-25T05:57:27.548Z,15.97
2018-11-25T06:02:29.651Z,17.17
2018-11-25T06:07:31.755Z,17.40
2018-11-25T06:12:33.864Z,14.77
2018-11-25T06:17:35.975Z,16.00
2018-11-25T06:22:38.095Z,13.93
2018-11-25T06:27:40.299Z,14.20
2018-11-25T06:32:42.447Z,14.07
2018-11-25T06:37:44.644Z,11.87
2018-11-25T06:42:46.850Z,11.70
2018-11-25T06:47:49.036Z,12.00
2018-11-25T06:52:51.194Z,11.70
2018-11-25T06:57:53.290Z,11.13
2018-11-25T07:02:55.420Z,10.97
2018-11-25T07:07:57.556Z,11.90
2018-11-25T07:12:59.666Z,11.43
2018-11-25T07:18:01.788Z,10.73
2018-11-25T07:23:03.983Z,10.90
2018-11-25T07:28:18.044Z,10.93
2018-11-25T07:33:08.311Z,11.13
2018-11-25T07:38:10.443Z,10.57
2018-11-25T07:43:12.593Z,10.57
2018-11-25T07:48:14.807Z,11.57
2018-11-25T07:53:16.954Z,10.17
2018-11-25T07:58:19.088Z,10.43
2018-11-25T08:03:21.253Z,12.30
2018-11-25T08:08:23.351Z,9.40
2018-11-25T08:13:25.508Z,9.67
2018-11-25T08:18:27.658Z,9.00
2018-11-25T08:23:29.800Z,9.25
2018-11-25T08:28:31.944Z,8.97
2018-11-25T08:33:34.061Z,7.10
2018-11-25T08:38:36.208Z,7.53
2018-11-25T08:43:38.349Z,7.53
2018-11-25T08:48:40.546Z,8.23
2018-11-25T08:53:42.692Z,8.60
2018-11-25T08:58:44.820Z,7.80
2018-11-25T09:03:46.956Z,8.97
2018-11-25T09:08:49.122Z,9.30
2018-11-25T09:13:51.241Z,7.83
2018-11-25T09:18:53.399Z,8.30
2018-11-25T09:23:55.588Z,7.90
2018-11-25T09:28:57.785Z,9.43
2018-11-25T09:33:59.933Z,7.53
2018-11-25T09:39:02.147Z,7.83
2018-11-25T09:44:04.611Z,7.13
2018-11-25T09:49:06.861Z,6.27
2018-11-25T09:54:09.014Z,6.83
2018-11-25T09:59:11.978Z,6.50
2018-11-25T10:04:14.191Z,5.40
2018-11-25T10:09:16.378Z,5.47
2018-11-25T10:14:18.512Z,4.67
2018-11-25T10:19:20.696Z,4.60
2018-11-25T10:24:22.841Z,5.60
2018-11-25T10:29:24.983Z,8.07
2018-11-25T10:34:27.189Z,7.33
2018-11-25T10:39:29.345Z,8.90
2018-11-25T10:44:31.540Z,9.10
2018-11-25T10:49:33.730Z,8.73
2018-11-25T10:54:35.893Z,11.00
2018-11-25T10:59:38.055Z,12.00
2018-11-25T11:05:45.207Z,11.60
2018-11-25T11:10:47.343Z,10.70
2018-11-25T11:15:49.516Z,10.37
2018-11-25T11:20:51.654Z,10.50
2018-11-25T11:25:53.800Z,10.57
2018-11-25T11:30:55.997Z,10.50
2018-11-25T11:35:58.181Z,12.33
2018-11-25T11:41:00.362Z,10.40
2018-11-25T11:46:02.524Z,10.10
2018-11-25T11:51:04.888Z,10.90
2018-11-25T11:56:07.046Z,10.57
2018-11-25T12:01:09.219Z,10.37
2018-11-25T12:06:11.404Z,12.30
2018-11-25T12:11:13.585Z,14.20
2018-11-25T12:16:15.765Z,13.43
2018-11-25T12:21:17.922Z,15.27
2018-11-25T12:26:20.116Z,16.80
2018-11-25T12:31:22.278Z,17.30
2018-11-25T12:36:25.134Z,12.17
2018-11-25T12:41:27.277Z,18.30
2018-11-25T12:46:29.597Z,18.93
2018-11-25T12:51:31.789Z,19.00
2018-11-25T12:56:33.947Z,18.93
2018-11-25T13:01:36.116Z,18.87
2018-11-25T13:06:38.253Z,17.17
2018-11-25T13:11:40.406Z,17.50
2018-11-25T13:16:42.839Z,15.53
2018-11-25T13:21:46.543Z,18.17
2018-11-25T13:26:48.901Z,17.13
2018-11-25T13:31:51.225Z,17.10
2018-11-25T13:36:53.424Z,17.00
2018-11-25T13:41:55.845Z,18.33
2018-11-25T13:46:58.008Z,19.17
2018-11-25T13:52:00.329Z,19.63
2018-11-25T13:57:03.316Z,19.03
2018-11-25T14:02:05.735Z,19.87
2018-11-25T14:07:07.921Z,21.87
2018-11-25T14:12:10.088Z,23.10
2018-11-25T14:17:12.317Z,21.70
2018-11-25T14:22:14.541Z,18.17
2018-11-25T14:27:16.787Z,17.03
2018-11-25T14:32:19.015Z,16.40
2018-11-25T14:37:21.186Z,16.27
2018-11-25T14:42:23.383Z,15.87
2018-11-25T14:47:25.570Z,16.97
2018-11-25T14:52:27.767Z,19.40
2018-11-25T14:57:29.939Z,18.23
2018-11-25T15:02:32.171Z,21.82
2018-11-25T15:07:34.389Z,19.40
2018-11-25T15:12:36.615Z,18.97
2018-11-25T15:17:39.104Z,20.83
2018-11-25T15:22:44.008Z,20.27
2018-11-25T15:27:46.285Z,20.17
2018-11-25T15:32:48.497Z,21.37
2018-11-25T15:37:51.565Z,21.70
2018-11-25T15:42:53.736Z,23.23
2018-11-25T15:47:58.459Z,21.37
2018-11-25T15:53:00.752Z,20.70
2018-11-25T15:58:02.991Z,21.00
2018-11-25T16:03:07.184Z,18.53
2018-11-25T16:08:09.415Z,18.83
2018-11-25T16:13:11.630Z,18.70
2018-11-25T16:18:13.919Z,18.07
2018-11-25T16:23:16.088Z,17.03
2018-11-25T16:28:22.725Z,17.10
2018-11-25T16:33:24.921Z,21.33
2018-11-25T16:38:27.160Z,19.20
2018-11-25T16:43:29.360Z,18.40
2018-11-25T16:48:31.548Z,20.93
2018-11-25T16:53:33.802Z,20.00
2018-11-25T16:58:35.961Z,20.27
2018-11-25T17:03:38.120Z,21.90
2018-11-25T17:08:41.642Z,20.80
2018-11-25T17:13:43.845Z,21.80
2018-11-25T17:18:46.072Z,22.27
2018-11-25T17:23:48.220Z,21.20
2018-11-25T17:28:50.409Z,21.93
2018-11-25T17:33:52.640Z,21.80
2018-11-25T17:38:54.847Z,23.93
2018-11-25T17:43:57.070Z,23.27
2018-11-25T17:48:59.293Z,22.00
2018-11-25T17:54:01.575Z,21.40
2018-11-25T17:59:03.862Z,14.00
2018-11-25T18:04:06.247Z,8.60
2018-11-25T18:09:09.894Z,8.40
2018-11-25T18:14:12.181Z,6.00
2018-11-25T18:19:21.212Z,6.43
2018-11-25T18:24:24.971Z,5.50
2018-11-25T18:29:30.161Z,6.33
2018-11-25T18:34:33.508Z,6.90
2018-11-25T18:39:36.434Z,7.93
2018-11-25T18:44:39.440Z,7.80
2018-11-25T18:49:41.912Z,7.40
2018-11-25T18:54:45.122Z,5.87
2018-11-25T18:59:48.112Z,4.23
2018-11-25T19:04:51.236Z,3.90
2018-11-25T19:09:54.015Z,3.30
2018-11-25T19:14:56.353Z,3.83
2018-11-25T19:20:01.939Z,3.60
2018-11-25T19:25:09.497Z,3.80
2018-11-25T19:30:16.292Z,4.00
2018-11-25T19:35:22.981Z,2.70
2018-11-25T19:40:29.603Z,2.40
2018-11-25T19:45:34.386Z,2.50
2018-11-25T19:50:40.366Z,3.37
2018-11-25T19:55:47.062Z,2.40
2018-11-25T20:00:53.926Z,3.17
2018-11-25T20:06:00.026Z,2.90
2018-11-25T20:11:06.123Z,2.87
2018-11-25T20:16:18.512Z,3.77
2018-11-25T20:21:29.522Z,3.40
2018-11-25T20:26:35.717Z,2.60
2018-11-25T20:31:41.601Z,2.87
2018-11-25T20:36:47.753Z,2.90
2018-11-25T20:41:54.479Z,1.70
2018-11-25T20:47:07.388Z,2.83
2018-11-25T20:52:18.185Z,1.97
2018-11-25T20:57:23.671Z,2.13
2018-11-25T21:02:29.322Z,1.70
2018-11-25T21:07:33.178Z,1.60
2018-11-25T21:12:36.664Z,1.73
2018-11-25T21:17:39.914Z,2.50
2018-11-25T21:22:42.188Z,2.20
2018-11-25T21:27:44.548Z,2.90
2018-11-25T21:32:47.833Z,2.73
2018-11-25T21:37:50.894Z,3.00
2018-11-25T21:42:53.079Z,3.97
2018-11-25T21:47:55.330Z,3.77
2018-11-25T21:52:57.480Z,4.07
2018-11-25T21:57:59.661Z,4.40
2018-11-25T22:03:01.821Z,4.63
2018-11-25T22:08:04.356Z,4.07
2018-11-25T22:13:06.501Z,4.60
2018-11-25T22:18:08.642Z,4.17
2018-11-25T22:23:10.806Z,4.40
2018-11-25T22:28:12.952Z,4.67
2018-11-25T22:33:15.051Z,3.47
2018-11-25T22:38:17.221Z,4.07
2018-11-25T22:43:19.397Z,3.73
2018-11-25T22:48:21.536Z,4.33
2018-11-25T22:53:24.401Z,3.20
2018-11-25T22:58:27.340Z,3.87
2018-11-25T23:03:29.498Z,3.30
2018-11-25T23:08:31.652Z,5.20
2018-11-25T23:13:33.997Z,2.83
2018-11-25T23:18:36.197Z,2.20
2018-11-25T23:23:38.316Z,3.10
2018-11-25T23:28:40.505Z,3.07
2018-11-25T23:33:42.811Z,3.57
2018-11-25T23:38:44.922Z,3.40
2018-11-25T23:43:47.138Z,4.10
2018-11-25T23:48:49.522Z,3.70
2018-11-25T23:53:51.623Z,3.20
2018-11-25T23:58:53.782Z,4.10
